Montrose, Ohio
Current Conditions -  °F | °C
As of 5:31 AM on Thursday 23 Oct 2014 (Local Time) from KAKR Reporting Station
Few Clouds Few Clouds  
Wind Chill: 43°   Ceiling: Unl
Heat Index: 46°   Visibility: 10mi
Dew Point: 43°   Wind: 6mph
Humidity: 89%   Direction: 330°NNW
Pressure: 30.18"   Gusts: NA
Location:  41.1631°N, 81.6352°W
Report Text: KAKR 230931Z AUTO 33005KT 10SM FEW016 08/06 A3018 RMK AO2 T00780061
Loading
Personal Weather Stations






























Interactive Weather Map
Tropical Storm Tracking
New forecast layout! Learn more

10-Day Weather Forecast

Advertisements
Track Severe Weather on mobile